createdAt,value
2023-07-03T00:00:24.193Z,100914.22
2023-07-03T00:02:54.202Z,100910.00
2023-07-03T00:05:25.109Z,100908.81
2023-07-03T00:07:54.316Z,100912.38
2023-07-03T00:10:23.440Z,100915.91
2023-07-03T00:12:52.574Z,100879.09
2023-07-03T00:15:21.626Z,100895.94
2023-07-03T00:17:50.675Z,100883.41
2023-07-03T00:20:19.740Z,100866.13
2023-07-03T00:22:49.202Z,100900.34
2023-07-03T00:25:18.840Z,100884.34
2023-07-03T00:27:48.690Z,100910.06
2023-07-03T00:30:17.806Z,100910.06
2023-07-03T00:32:46.921Z,100892.94
2023-07-03T00:35:15.951Z,100902.41
2023-07-03T00:37:45.095Z,100893.16
2023-07-03T00:40:14.912Z,100894.88
2023-07-03T00:42:44.131Z,100904.16
2023-07-03T00:45:13.311Z,100901.59
2023-07-03T00:47:42.663Z,100874.38
2023-07-03T00:50:12.158Z,100887.91
2023-07-03T00:52:42.891Z,100901.53
2023-07-03T00:55:14.987Z,100898.97
2023-07-03T00:57:44.281Z,100881.91
2023-07-03T01:00:14.435Z,100898.06
2023-07-03T01:02:52.073Z,100896.50
2023-07-03T01:05:26.526Z,100895.63
2023-07-03T01:07:57.336Z,100888.81
2023-07-03T01:10:27.583Z,100883.75
2023-07-03T01:13:01.751Z,100887.81
2023-07-03T01:15:35.315Z,100868.25
2023-07-03T01:18:07.019Z,100888.75
2023-07-03T01:20:51.299Z,100882.69
2023-07-03T01:23:47.019Z,100881.72
2023-07-03T01:26:17.803Z,100880.66
2023-07-03T01:28:52.305Z,100871.97
2023-07-03T01:31:24.795Z,100861.66
2023-07-03T01:33:56.078Z,100866.72
2023-07-03T01:36:26.817Z,100840.91
2023-07-03T01:38:56.905Z,100867.50
2023-07-03T01:41:27.699Z,100868.47
2023-07-03T01:43:56.615Z,100853.13
2023-07-03T01:46:26.033Z,100836.72
2023-07-03T01:48:54.976Z,100853.78
2023-07-03T01:51:42.304Z,100868.56
2023-07-03T01:54:17.183Z,100855.59
2023-07-03T01:56:52.039Z,100866.88
2023-07-03T01:59:29.430Z,100877.38
2023-07-03T02:02:10.893Z,100868.75
2023-07-03T02:04:49.111Z,100837.03
2023-07-03T02:07:19.534Z,100877.28
2023-07-03T02:09:49.283Z,100876.47
2023-07-03T02:12:19.137Z,100841.31
2023-07-03T02:14:48.350Z,100856.09
2023-07-03T02:17:17.349Z,100873.09
2023-07-03T02:19:47.029Z,100851.69
2023-07-03T02:22:16.035Z,100866.50
2023-07-03T02:24:45.293Z,100867.56
2023-07-03T02:27:14.363Z,100853.75
2023-07-03T02:29:43.559Z,100865.03
2023-07-03T02:32:13.649Z,100872.06
2023-07-03T02:34:42.658Z,100857.59
2023-07-03T02:37:13.037Z,100864.56
2023-07-03T02:39:42.320Z,100862.19
2023-07-03T02:42:11.467Z,100867.47
2023-07-03T02:44:40.744Z,100871.75
2023-07-03T02:47:09.720Z,100858.66
2023-07-03T02:49:38.975Z,100864.19
2023-07-03T02:52:08.590Z,100868.56
2023-07-03T02:54:37.562Z,100862.00
2023-07-03T02:57:06.999Z,100864.63
2023-07-03T02:59:36.296Z,100870.63
2023-07-03T03:02:05.559Z,100838.06
2023-07-03T03:04:34.860Z,100869.19
2023-07-03T03:07:03.972Z,100835.94
2023-07-03T03:09:33.147Z,100860.91
2023-07-03T03:12:02.301Z,100866.31
2023-07-03T03:14:31.452Z,100852.63
2023-07-03T03:17:01.078Z,100859.53
2023-07-03T03:19:30.280Z,100831.34
2023-07-03T03:21:59.466Z,100848.44
2023-07-03T03:24:28.820Z,100837.50
2023-07-03T03:26:57.892Z,100833.25
2023-07-03T03:29:27.111Z,100837.59
2023-07-03T03:31:56.286Z,100856.50
2023-07-03T03:34:25.479Z,100830.81
2023-07-03T03:36:54.781Z,100830.72
2023-07-03T03:39:24.227Z,100832.41
2023-07-03T03:41:53.135Z,100860.59
2023-07-03T03:44:22.429Z,100863.97
2023-07-03T03:46:54.359Z,100844.09
2023-07-03T03:49:23.659Z,100836.47
2023-07-03T03:51:52.694Z,100862.16
2023-07-03T03:54:21.944Z,100853.63
2023-07-03T03:56:51.087Z,100863.06
2023-07-03T03:59:22.172Z,100866.56
2023-07-03T04:01:52.006Z,100871.84
2023-07-03T04:04:21.400Z,100872.84
2023-07-03T04:06:50.779Z,100873.78
2023-07-03T04:09:20.239Z,100862.47
2023-07-03T04:11:49.199Z,100865.84
2023-07-03T04:14:18.444Z,100861.44
2023-07-03T04:16:49.349Z,100852.06
2023-07-03T04:19:19.958Z,100871.94
2023-07-03T04:21:49.243Z,100875.34
2023-07-03T04:24:18.535Z,100881.50
2023-07-03T04:26:47.755Z,100865.91
2023-07-03T04:29:16.987Z,100867.66
2023-07-03T04:31:46.249Z,100875.34
2023-07-03T04:34:15.315Z,100886.50
2023-07-03T04:36:44.576Z,100882.16
2023-07-03T04:39:13.659Z,100900.56
2023-07-03T04:41:42.778Z,100894.53
2023-07-03T04:44:13.974Z,100863.66
2023-07-03T04:46:45.252Z,100878.97
2023-07-03T04:49:14.318Z,100860.22
2023-07-03T04:51:43.291Z,100899.78
2023-07-03T04:54:12.536Z,100864.69
2023-07-03T04:56:42.446Z,100865.72
2023-07-03T04:59:12.000Z,100869.22
2023-07-03T05:01:44.097Z,100893.25
2023-07-03T05:04:13.501Z,100866.09
2023-07-03T05:06:42.972Z,100905.59
2023-07-03T05:09:12.009Z,100910.91
2023-07-03T05:11:41.792Z,100907.28
2023-07-03T05:14:10.814Z,100909.88
2023-07-03T05:16:39.979Z,100905.38
2023-07-03T05:19:09.169Z,100909.63
2023-07-03T05:21:38.316Z,100906.19
2023-07-03T05:24:07.609Z,100917.69
2023-07-03T05:26:36.521Z,100910.31
2023-07-03T05:29:05.977Z,100901.53
2023-07-03T05:31:34.939Z,100912.59
2023-07-03T05:34:04.150Z,100916.03
2023-07-03T05:36:33.371Z,100914.41
2023-07-03T05:39:02.710Z,100889.03
2023-07-03T05:41:32.021Z,100926.97
2023-07-03T05:44:01.315Z,100920.81
2023-07-03T05:46:30.587Z,100925.81
2023-07-03T05:48:59.663Z,100926.34
2023-07-03T05:51:28.702Z,100923.28
2023-07-03T05:53:57.903Z,100920.34
2023-07-03T05:56:29.825Z,100925.00
2023-07-03T05:58:58.858Z,100933.41
2023-07-03T06:01:29.725Z,100930.47
2023-07-03T06:03:59.519Z,100937.94
2023-07-03T06:06:28.842Z,100922.19
2023-07-03T06:08:59.591Z,100937.53
2023-07-03T06:11:28.518Z,100936.19
2023-07-03T06:13:57.701Z,100930.09
2023-07-03T06:16:29.100Z,100942.97
2023-07-03T06:18:58.062Z,100918.22
2023-07-03T06:21:27.273Z,100940.38
2023-07-03T06:23:56.249Z,100868.41
2023-07-03T06:26:25.404Z,100910.38
2023-07-03T06:28:54.803Z,100910.38
2023-07-03T06:31:24.382Z,100910.38
2023-07-03T06:33:53.935Z,100931.75
2023-07-03T06:36:23.310Z,100940.59
2023-07-03T06:38:53.952Z,100930.16
2023-07-03T06:41:24.426Z,100947.50
2023-07-03T06:43:54.031Z,100932.91
2023-07-03T06:46:23.945Z,100940.53
2023-07-03T06:48:57.345Z,100946.91
2023-07-03T06:51:26.893Z,100954.03
2023-07-03T06:53:56.336Z,100941.16
2023-07-03T06:56:27.609Z,100886.25
2023-07-03T06:58:57.379Z,100917.75
2023-07-03T07:01:30.110Z,100925.19
2023-07-03T07:03:59.399Z,100951.56
2023-07-03T07:06:31.512Z,100935.72
2023-07-03T07:09:01.318Z,100938.78
2023-07-03T07:11:34.026Z,100946.41
2023-07-03T07:14:06.679Z,100949.00
2023-07-03T07:16:37.917Z,100921.16
2023-07-03T07:19:09.707Z,100952.91
2023-07-03T07:21:42.415Z,100945.00
2023-07-03T07:24:28.950Z,100932.97
2023-07-03T07:27:00.200Z,100942.22
2023-07-03T07:29:29.804Z,100937.44
2023-07-03T07:31:59.370Z,100960.25
2023-07-03T07:34:28.712Z,100953.69
2023-07-03T07:36:57.819Z,100936.66
2023-07-03T07:39:28.168Z,100964.06
2023-07-03T07:41:57.687Z,100964.00
2023-07-03T07:44:28.131Z,100935.75
2023-07-03T07:46:57.247Z,100965.50
2023-07-03T07:49:26.640Z,100925.19
2023-07-03T07:51:56.751Z,100956.50
2023-07-03T07:54:25.747Z,100964.38
2023-07-03T07:56:54.971Z,100958.69
2023-07-03T07:59:24.260Z,100967.50
2023-07-03T08:01:53.945Z,100978.81
2023-07-03T08:04:23.429Z,100950.56
2023-07-03T08:06:52.995Z,100967.53
2023-07-03T08:09:25.001Z,100934.69
2023-07-03T08:11:54.295Z,100954.19
2023-07-03T08:14:23.686Z,100958.91
2023-07-03T08:16:53.127Z,100959.50
2023-07-03T08:19:22.316Z,100972.03
2023-07-03T08:21:51.295Z,100963.00
2023-07-03T08:24:20.634Z,100968.97
2023-07-03T08:26:51.427Z,100968.06
2023-07-03T08:29:20.659Z,100966.66
2023-07-03T08:31:50.235Z,100952.13
2023-07-03T08:34:19.615Z,100971.06
2023-07-03T08:39:21.773Z,100945.78
2023-07-03T08:42:00.311Z,100949.72
2023-07-03T08:44:30.020Z,100980.09
2023-07-03T08:47:10.412Z,100991.00
2023-07-03T08:49:42.489Z,100978.53
2023-07-03T08:52:14.482Z,100978.81
2023-07-03T08:54:43.928Z,100971.22
2023-07-03T08:57:13.243Z,100991.38
2023-07-03T08:59:42.232Z,100992.44
2023-07-03T09:02:24.695Z,101007.41
2023-07-03T09:05:27.630Z,100975.97
2023-07-03T09:08:05.093Z,100998.31
2023-07-03T09:10:47.426Z,100995.16
2023-07-03T09:13:34.638Z,101005.31
2023-07-03T09:16:12.896Z,101003.00
2023-07-03T09:18:48.980Z,100975.00
2023-07-03T09:21:18.440Z,100991.22
2023-07-03T09:24:18.470Z,100990.63
2023-07-03T09:27:16.650Z,100999.81
2023-07-03T09:29:46.798Z,100991.00
2023-07-03T09:32:30.239Z,100977.97
2023-07-03T09:35:17.158Z,100993.03
2023-07-03T09:38:10.550Z,101004.81
2023-07-03T09:40:44.181Z,100999.13
2023-07-03T09:43:20.680Z,101000.69
2023-07-03T09:45:53.507Z,100999.34
2023-07-03T09:48:27.455Z,101009.97
2023-07-03T09:51:05.698Z,101015.22
2023-07-03T09:53:40.218Z,101005.09
2023-07-03T09:56:16.675Z,101016.13
2023-07-03T09:58:49.497Z,101013.56
2023-07-03T10:06:57.554Z,100987.66
2023-07-03T10:12:35.794Z,101026.09
2023-07-03T10:15:09.803Z,101025.03
2023-07-03T10:17:47.179Z,101031.84
2023-07-03T10:20:28.495Z,101026.78
2023-07-03T10:22:59.938Z,101033.13
2023-07-03T10:25:35.445Z,101018.56
2023-07-03T10:28:09.450Z,101046.22
2023-07-03T10:30:43.614Z,101019.63
2023-07-03T10:33:20.016Z,101025.53
2023-07-03T10:35:51.622Z,101028.94
2023-07-03T10:38:27.718Z,101022.19
2023-07-03T10:44:18.431Z,100991.44
2023-07-03T10:47:09.428Z,101031.50
2023-07-03T10:49:40.844Z,101035.00
2023-07-03T10:52:36.509Z,101025.81
2023-07-03T10:55:21.207Z,101031.31
2023-07-03T10:57:59.002Z,101025.75
2023-07-03T11:00:42.678Z,101026.22
2023-07-03T11:03:19.377Z,101028.28
2023-07-03T11:06:02.464Z,101039.28
2023-07-03T11:08:44.278Z,101045.72
2023-07-03T11:11:46.375Z,101059.19
2023-07-03T11:14:32.430Z,101053.19
2023-07-03T11:17:20.572Z,101058.78
2023-07-03T11:20:10.251Z,101056.63
2023-07-03T11:22:51.399Z,101054.34
2023-07-03T11:25:23.283Z,101050.84
2023-07-03T11:28:38.127Z,101031.44
2023-07-03T11:31:07.874Z,101041.53
2023-07-03T11:36:50.341Z,101042.31
2023-07-03T11:44:39.587Z,101009.72
2023-07-03T11:47:13.041Z,101038.75
2023-07-03T11:49:49.970Z,101036.03
2023-07-03T11:52:40.433Z,101043.16
2023-07-03T11:55:17.789Z,101020.88
2023-07-03T11:57:53.064Z,101028.06
2023-07-03T12:00:35.922Z,101044.03
2023-07-03T12:03:07.582Z,101025.72
2023-07-03T12:05:43.085Z,101026.84
2023-07-03T12:08:19.330Z,101057.84
2023-07-03T12:10:51.613Z,101048.09
2023-07-03T12:13:30.215Z,101051.47
2023-07-03T12:16:03.702Z,101055.66
2023-07-03T12:18:34.192Z,101060.75
2023-07-03T12:21:05.327Z,101062.63
2023-07-03T12:23:48.167Z,101072.44
2023-07-03T12:26:19.261Z,101077.59
2023-07-03T12:28:48.274Z,101068.25
2023-07-03T12:31:21.953Z,101081.06
2023-07-03T12:33:59.925Z,101058.34
2023-07-03T12:36:35.810Z,101079.66
2023-07-03T12:39:14.649Z,101090.31
2023-07-03T12:41:44.452Z,101092.81
2023-07-03T12:44:14.022Z,101099.13
2023-07-03T12:46:47.147Z,101092.16
2023-07-03T12:49:18.998Z,101086.88
2023-07-03T12:51:51.023Z,101080.91
2023-07-03T12:54:24.915Z,101061.75
2023-07-03T12:56:54.366Z,101082.53
2023-07-03T12:59:25.534Z,101069.50
2023-07-03T13:01:56.574Z,101062.59
2023-07-03T13:04:30.937Z,101052.47
2023-07-03T13:07:01.790Z,101072.13
2023-07-03T13:09:33.277Z,101059.44
2023-07-03T13:12:18.512Z,101078.25
2023-07-03T13:15:11.290Z,101076.53
2023-07-03T13:17:43.187Z,101057.66
2023-07-03T13:20:18.303Z,101045.63
2023-07-03T13:22:53.682Z,101076.53
2023-07-03T13:25:31.279Z,101079.31
2023-07-03T13:28:06.224Z,101050.50
2023-07-03T13:30:41.549Z,101071.75
2023-07-03T13:33:15.111Z,101075.09
2023-07-03T13:35:47.923Z,101072.53
2023-07-03T13:38:23.343Z,101076.81
2023-07-03T13:40:54.156Z,101064.50
2023-07-03T13:43:26.497Z,101077.34
2023-07-03T13:45:57.009Z,101075.56
2023-07-03T13:48:28.055Z,101070.69
2023-07-03T13:50:57.664Z,101059.16
2023-07-03T13:53:27.781Z,101085.38
2023-07-03T13:55:57.120Z,101084.75
2023-07-03T13:58:26.741Z,101064.84
2023-07-03T14:00:55.969Z,101090.03
2023-07-03T14:03:25.310Z,101099.78
2023-07-03T14:05:54.583Z,101087.78
2023-07-03T14:08:24.197Z,101056.19
2023-07-03T14:10:53.854Z,101082.75
2023-07-03T14:13:22.801Z,101076.41
2023-07-03T14:15:52.169Z,101080.31
2023-07-03T14:18:21.662Z,101085.69
2023-07-03T14:20:50.645Z,101058.47
2023-07-03T14:23:19.983Z,101094.72
2023-07-03T14:25:49.272Z,101066.09
2023-07-03T14:28:18.570Z,101066.91
2023-07-03T14:30:48.237Z,101080.56
2023-07-03T14:33:17.685Z,101092.66
2023-07-03T14:35:47.861Z,101077.06
2023-07-03T14:38:17.313Z,101090.78
2023-07-03T14:40:46.674Z,101083.91
2023-07-03T14:43:16.021Z,101073.38
2023-07-03T14:45:45.309Z,101061.38
2023-07-03T14:48:14.299Z,101063.16
2023-07-03T14:50:43.587Z,101085.97
2023-07-03T14:53:12.476Z,101065.88
2023-07-03T14:55:41.957Z,101076.88
2023-07-03T14:58:11.860Z,101082.13
2023-07-03T15:00:41.176Z,101083.44
2023-07-03T15:03:11.791Z,101085.97
2023-07-03T15:05:41.236Z,101082.03
2023-07-03T15:08:10.509Z,101046.97
2023-07-03T15:10:39.798Z,101046.63
2023-07-03T15:13:09.317Z,101049.44
2023-07-03T15:15:38.838Z,101075.81
2023-07-03T15:18:08.537Z,101061.00
2023-07-03T15:20:39.793Z,101064.94
2023-07-03T15:23:09.181Z,101078.69
2023-07-03T15:25:38.829Z,101066.44
2023-07-03T15:28:08.025Z,101077.88
2023-07-03T15:30:41.345Z,101060.09
2023-07-03T15:33:10.771Z,101061.88
2023-07-03T15:35:39.732Z,101061.09
2023-07-03T15:38:08.948Z,101031.19
2023-07-03T15:40:37.850Z,101053.53
2023-07-03T15:43:07.201Z,101033.75
2023-07-03T15:45:36.438Z,101054.63
2023-07-03T15:48:05.533Z,101060.63
2023-07-03T15:50:34.813Z,101069.28
2023-07-03T15:53:03.844Z,101056.97
2023-07-03T15:55:33.032Z,101056.97
2023-07-03T15:58:01.969Z,101031.34
2023-07-03T16:00:31.370Z,101045.81
2023-07-03T16:03:00.666Z,101040.31
2023-07-03T16:05:29.976Z,101041.13
2023-07-03T16:07:58.999Z,101029.78
2023-07-03T16:10:28.059Z,101032.22
2023-07-03T16:12:57.121Z,101032.34
2023-07-03T16:15:26.252Z,100997.13
2023-07-03T16:17:55.545Z,100988.44
2023-07-03T16:20:24.945Z,100994.44
2023-07-03T16:22:53.853Z,101013.00
2023-07-03T16:25:24.512Z,101006.16
2023-07-03T16:27:53.573Z,101002.59
2023-07-03T16:30:22.745Z,100998.69
2023-07-03T16:32:52.284Z,101012.44
2023-07-03T16:35:21.814Z,100996.06
2023-07-03T16:37:51.222Z,101001.25
2023-07-03T16:40:20.587Z,101022.91
2023-07-03T16:42:49.784Z,101016.13
2023-07-03T16:45:19.151Z,101011.28
2023-07-03T16:47:48.141Z,101009.72
2023-07-03T16:50:17.499Z,101005.31
2023-07-03T16:52:47.421Z,101003.31
2023-07-03T16:55:16.768Z,100991.72
2023-07-03T16:57:45.935Z,100961.41
2023-07-03T17:00:15.318Z,100995.56
2023-07-03T17:02:44.589Z,100991.09
2023-07-03T17:05:14.435Z,100988.69
2023-07-03T17:07:43.420Z,100956.72
2023-07-03T17:10:12.405Z,100989.22
2023-07-03T17:12:41.535Z,100984.69
2023-07-03T17:15:11.000Z,100983.72
2023-07-03T17:17:41.186Z,100967.25
2023-07-03T17:20:11.099Z,100973.19
2023-07-03T17:22:40.437Z,100969.13
2023-07-03T17:25:09.896Z,100980.19
2023-07-03T17:27:38.974Z,100976.78
2023-07-03T17:30:08.745Z,100968.94
2023-07-03T17:32:38.392Z,100969.81
2023-07-03T17:35:07.465Z,100932.13
2023-07-03T17:37:36.676Z,100960.34
2023-07-03T17:40:06.563Z,100968.09
2023-07-03T17:42:35.973Z,100961.97
2023-07-03T17:45:06.039Z,100953.22
2023-07-03T17:47:35.661Z,100965.63
2023-07-03T17:50:05.363Z,100957.72
2023-07-03T17:52:34.641Z,100948.34
2023-07-03T17:55:04.168Z,100920.63
2023-07-03T17:57:33.731Z,100940.22
2023-07-03T18:00:03.004Z,100946.41
2023-07-03T18:02:32.378Z,100913.81
2023-07-03T18:05:02.415Z,100907.78
2023-07-03T18:07:32.356Z,100924.53
2023-07-03T18:10:04.020Z,100927.28
2023-07-03T18:12:33.688Z,100918.81
2023-07-03T18:15:02.924Z,100886.16
2023-07-03T18:17:32.240Z,100917.81
2023-07-03T18:20:05.121Z,100893.00
2023-07-03T18:22:34.293Z,100917.88
2023-07-03T18:25:04.656Z,100910.06
2023-07-03T18:27:33.986Z,100904.09
2023-07-03T18:30:04.200Z,100922.22
2023-07-03T18:32:35.005Z,100908.22
2023-07-03T18:35:05.059Z,100896.09
2023-07-03T18:37:35.491Z,100892.63
2023-07-03T18:40:08.269Z,100886.22
2023-07-03T18:42:36.317Z,100867.06
2023-07-03T18:45:06.106Z,100874.94
2023-07-03T18:47:35.948Z,100880.22
2023-07-03T18:50:05.428Z,100873.31
2023-07-03T18:52:34.718Z,100880.31
2023-07-03T18:55:04.363Z,100869.78
2023-07-03T18:57:33.499Z,100877.59
2023-07-03T19:00:05.506Z,100867.06
2023-07-03T19:02:34.887Z,100862.63
2023-07-03T19:05:06.358Z,100845.63
2023-07-03T19:07:36.166Z,100878.34
2023-07-03T19:12:38.014Z,100897.00
2023-07-03T19:15:07.960Z,100922.03
2023-07-03T19:17:37.006Z,100925.59
2023-07-03T19:20:07.852Z,100931.16
2023-07-03T19:22:37.037Z,100915.44
2023-07-03T19:25:06.679Z,100939.22
2023-07-03T19:27:36.040Z,100898.25
2023-07-03T19:30:06.661Z,100884.03
2023-07-03T19:32:35.938Z,100919.94
2023-07-03T19:35:05.173Z,100928.00
2023-07-03T19:37:34.369Z,100912.94
2023-07-03T19:40:06.815Z,100941.25
2023-07-03T19:42:36.505Z,100936.56
2023-07-03T19:45:05.894Z,100928.09
2023-07-03T19:47:35.847Z,100921.97
2023-07-03T19:50:11.010Z,100930.09
2023-07-03T19:52:40.550Z,100916.44
2023-07-03T19:55:09.870Z,100937.03
2023-07-03T19:57:39.517Z,100950.78
2023-07-03T20:00:12.854Z,100953.84
2023-07-03T20:02:43.334Z,100916.25
2023-07-03T20:05:12.760Z,100953.38
2023-07-03T20:07:41.879Z,100946.41
2023-07-03T20:10:11.364Z,100930.47
2023-07-03T20:12:40.638Z,100949.88
2023-07-03T20:15:11.821Z,100948.78
2023-07-03T20:17:41.140Z,100948.28
2023-07-03T20:20:10.762Z,100936.31
2023-07-03T20:22:39.799Z,100945.16
2023-07-03T20:25:09.327Z,100927.44
2023-07-03T20:27:38.980Z,100931.06
2023-07-03T20:30:09.488Z,100930.66
2023-07-03T20:32:38.622Z,100938.41
2023-07-03T20:35:08.137Z,100940.13
2023-07-03T20:37:37.702Z,100933.97
2023-07-03T20:40:07.456Z,100922.59
2023-07-03T20:42:36.786Z,100935.72
2023-07-03T20:45:07.303Z,100937.56
2023-07-03T20:47:36.265Z,100921.47
2023-07-03T20:50:05.890Z,100946.91
2023-07-03T20:52:41.029Z,100957.25
2023-07-03T20:55:36.711Z,100951.94
2023-07-03T20:58:06.062Z,100929.97
2023-07-03T21:00:35.249Z,100939.59
2023-07-03T21:03:04.763Z,100938.75
2023-07-03T21:05:39.228Z,100949.25
2023-07-03T21:08:09.633Z,100974.94
2023-07-03T21:10:38.892Z,100965.53
2023-07-03T21:13:07.768Z,100959.13
2023-07-03T21:15:36.917Z,100960.88
2023-07-03T21:18:06.169Z,100957.25
2023-07-03T21:20:35.883Z,100954.72
2023-07-03T21:23:04.853Z,100951.44
2023-07-03T21:25:35.029Z,100970.47
2023-07-03T21:28:04.410Z,100950.63
2023-07-03T21:30:33.306Z,100933.72
2023-07-03T21:33:02.690Z,100974.94
2023-07-03T21:35:31.675Z,100975.06
2023-07-03T21:38:00.875Z,100945.88
2023-07-03T21:40:30.099Z,100983.66
2023-07-03T21:42:59.584Z,100970.59
2023-07-03T21:45:28.612Z,100962.72
2023-07-03T21:47:57.970Z,100973.31
2023-07-03T21:50:27.235Z,100946.00
2023-07-03T21:52:56.263Z,100967.25
2023-07-03T21:55:25.892Z,100966.25
2023-07-03T21:57:55.144Z,100967.03
2023-07-03T22:00:24.275Z,100940.50
2023-07-03T22:02:53.493Z,100970.69
2023-07-03T22:05:22.539Z,100970.06
2023-07-03T22:07:51.752Z,100971.88
2023-07-03T22:10:21.296Z,100966.97
2023-07-03T22:12:50.294Z,100975.75
2023-07-03T22:15:19.464Z,100976.66
2023-07-03T22:17:48.708Z,100952.97
2023-07-03T22:20:19.734Z,100977.16
2023-07-03T22:22:52.573Z,100953.50
2023-07-03T22:25:21.910Z,100951.78
2023-07-03T22:27:51.952Z,100971.38
2023-07-03T22:30:21.454Z,100963.66
2023-07-03T22:35:19.117Z,100971.31
2023-07-03T22:37:48.078Z,100975.53
2023-07-03T22:40:18.226Z,100935.00
2023-07-03T22:42:47.655Z,100959.03
2023-07-03T22:45:16.765Z,100975.47
2023-07-03T22:47:45.846Z,100979.06
2023-07-03T22:50:15.358Z,100972.16
2023-07-03T22:52:49.386Z,100974.78
2023-07-03T22:55:18.977Z,100958.50
2023-07-03T22:57:48.372Z,100983.41
2023-07-03T23:00:18.188Z,100969.78
2023-07-03T23:02:47.089Z,100967.34
2023-07-03T23:05:16.285Z,100983.75
2023-07-03T23:07:46.146Z,100945.19
2023-07-03T23:10:15.618Z,100974.44
2023-07-03T23:12:44.499Z,100989.06
2023-07-03T23:15:13.848Z,100991.75
2023-07-03T23:17:43.149Z,100976.31
2023-07-03T23:20:12.742Z,100977.06
2023-07-03T23:22:42.893Z,100984.94
2023-07-03T23:25:12.326Z,100991.09
2023-07-03T23:27:43.286Z,100984.03
2023-07-03T23:30:14.019Z,100991.94
2023-07-03T23:32:44.422Z,100996.34
2023-07-03T23:35:13.993Z,100997.94
2023-07-03T23:37:45.061Z,100983.22
2023-07-03T23:40:15.805Z,101006.53
2023-07-03T23:42:45.151Z,100998.56
2023-07-03T23:45:14.766Z,100989.16
2023-07-03T23:47:43.958Z,100990.84
2023-07-03T23:50:14.639Z,101004.69
2023-07-03T23:52:44.799Z,100998.72
2023-07-03T23:55:13.806Z,101009.31
2023-07-03T23:57:43.264Z,101008.63
